sensor_id;sensor_type;location;lat;lon;timestamp;temperature;humidity
19817;DHT22;68323;49.394;8.434;2023-05-23T00:00:25;19.40;99.90
19817;DHT22;68323;49.394;8.434;2023-05-23T00:02:51;19.40;99.90
19817;DHT22;68323;49.394;8.434;2023-05-23T00:05:17;19.40;99.90
19817;DHT22;68323;49.394;8.434;2023-05-23T00:07:43;19.40;99.90
19817;DHT22;68323;49.394;8.434;2023-05-23T00:10:10;19.40;99.90
19817;DHT22;68323;49.394;8.434;2023-05-23T00:12:35;19.40;99.90
19817;DHT22;68323;49.394;8.434;2023-05-23T00:15:04;19.30;99.90
19817;DHT22;68323;49.394;8.434;2023-05-23T00:17:32;19.30;99.90
19817;DHT22;68323;49.394;8.434;2023-05-23T00:19:57;19.20;99.90
19817;DHT22;68323;49.394;8.434;2023-05-23T00:22:23;19.20;99.90
19817;DHT22;68323;49.394;8.434;2023-05-23T00:24:48;19.10;99.90
19817;DHT22;68323;49.394;8.434;2023-05-23T00:27:14;19.10;99.90
19817;DHT22;68323;49.394;8.434;2023-05-23T00:29:39;19.00;99.90
19817;DHT22;68323;49.394;8.434;2023-05-23T00:32:05;19.10;99.90
19817;DHT22;68323;49.394;8.434;2023-05-23T00:34:30;19.00;99.90
19817;DHT22;68323;49.394;8.434;2023-05-23T00:36:56;19.00;99.90
19817;DHT22;68323;49.394;8.434;2023-05-23T00:39:22;19.00;99.90
19817;DHT22;68323;49.394;8.434;2023-05-23T00:41:48;19.00;99.90
19817;DHT22;68323;49.394;8.434;2023-05-23T00:44:14;18.90;99.90
19817;DHT22;68323;49.394;8.434;2023-05-23T00:46:43;18.90;99.90
19817;DHT22;68323;49.394;8.434;2023-05-23T00:49:10;18.90;99.90
19817;DHT22;68323;49.394;8.434;2023-05-23T00:51:36;18.80;99.90
19817;DHT22;68323;49.394;8.434;2023-05-23T00:54:04;18.80;99.90
19817;DHT22;68323;49.394;8.434;2023-05-23T00:56:30;18.80;99.90
19817;DHT22;68323;49.394;8.434;2023-05-23T00:58:55;18.80;99.90
19817;DHT22;68323;49.394;8.434;2023-05-23T01:01:22;18.70;99.90
19817;DHT22;68323;49.394;8.434;2023-05-23T01:03:48;18.70;99.90
19817;DHT22;68323;49.394;8.434;2023-05-23T01:06:15;18.60;99.90
19817;DHT22;68323;49.394;8.434;2023-05-23T01:08:42;18.60;99.90
19817;DHT22;68323;49.394;8.434;2023-05-23T01:11:21;18.60;99.90
19817;DHT22;68323;49.394;8.434;2023-05-23T01:14:00;18.60;99.90
19817;DHT22;68323;49.394;8.434;2023-05-23T01:16:51;18.50;99.90
19817;DHT22;68323;49.394;8.434;2023-05-23T01:27:52;18.40;99.90
19817;DHT22;68323;49.394;8.434;2023-05-23T01:30:20;18.40;99.90
19817;DHT22;68323;49.394;8.434;2023-05-23T01:32:47;18.40;99.90
19817;DHT22;68323;49.394;8.434;2023-05-23T01:35:20;18.30;99.90
19817;DHT22;68323;49.394;8.434;2023-05-23T01:37:46;18.40;99.90
19817;DHT22;68323;49.394;8.434;2023-05-23T01:40:11;18.30;99.90
19817;DHT22;68323;49.394;8.434;2023-05-23T01:42:37;18.30;99.90
19817;DHT22;68323;49.394;8.434;2023-05-23T01:45:03;18.30;99.90
19817;DHT22;68323;49.394;8.434;2023-05-23T01:47:29;18.20;99.90
19817;DHT22;68323;49.394;8.434;2023-05-23T01:49:55;18.20;99.90
19817;DHT22;68323;49.394;8.434;2023-05-23T01:52:22;18.20;99.90
19817;DHT22;68323;49.394;8.434;2023-05-23T01:54:48;18.20;99.90
19817;DHT22;68323;49.394;8.434;2023-05-23T01:57:15;18.10;99.90
19817;DHT22;68323;49.394;8.434;2023-05-23T01:59:41;18.10;99.90
19817;DHT22;68323;49.394;8.434;2023-05-23T02:02:06;18.10;99.90
19817;DHT22;68323;49.394;8.434;2023-05-23T02:04:32;18.10;99.90
19817;DHT22;68323;49.394;8.434;2023-05-23T02:06:58;18.10;99.90
19817;DHT22;68323;49.394;8.434;2023-05-23T02:09:23;18.10;99.90
19817;DHT22;68323;49.394;8.434;2023-05-23T02:11:49;18.10;99.90
19817;DHT22;68323;49.394;8.434;2023-05-23T02:14:15;18.10;99.90
19817;DHT22;68323;49.394;8.434;2023-05-23T02:16:40;18.10;99.90
19817;DHT22;68323;49.394;8.434;2023-05-23T02:19:06;18.10;99.90
19817;DHT22;68323;49.394;8.434;2023-05-23T02:21:31;18.10;99.90
19817;DHT22;68323;49.394;8.434;2023-05-23T02:23:57;18.10;99.90
19817;DHT22;68323;49.394;8.434;2023-05-23T02:26:22;18.10;99.90
19817;DHT22;68323;49.394;8.434;2023-05-23T02:28:48;18.10;99.90
19817;DHT22;68323;49.394;8.434;2023-05-23T02:31:13;18.00;99.90
19817;DHT22;68323;49.394;8.434;2023-05-23T02:33:39;18.00;99.90
19817;DHT22;68323;49.394;8.434;2023-05-23T02:36:04;18.00;99.90
19817;DHT22;68323;49.394;8.434;2023-05-23T02:38:30;18.00;99.90
19817;DHT22;68323;49.394;8.434;2023-05-23T02:40:56;17.90;99.90
19817;DHT22;68323;49.394;8.434;2023-05-23T02:43:22;17.90;99.90
19817;DHT22;68323;49.394;8.434;2023-05-23T02:45:47;17.90;99.90
19817;DHT22;68323;49.394;8.434;2023-05-23T02:48:13;17.90;99.90
19817;DHT22;68323;49.394;8.434;2023-05-23T02:50:39;17.90;99.90
19817;DHT22;68323;49.394;8.434;2023-05-23T02:53:04;17.90;99.90
19817;DHT22;68323;49.394;8.434;2023-05-23T02:55:30;17.90;99.90
19817;DHT22;68323;49.394;8.434;2023-05-23T02:57:56;17.90;99.90
19817;DHT22;68323;49.394;8.434;2023-05-23T03:00:23;17.90;99.90
19817;DHT22;68323;49.394;8.434;2023-05-23T03:02:48;17.90;99.90
19817;DHT22;68323;49.394;8.434;2023-05-23T03:05:14;17.90;99.90
19817;DHT22;68323;49.394;8.434;2023-05-23T03:07:40;17.80;99.90
19817;DHT22;68323;49.394;8.434;2023-05-23T03:10:06;17.90;99.90
19817;DHT22;68323;49.394;8.434;2023-05-23T03:12:31;17.80;99.90
19817;DHT22;68323;49.394;8.434;2023-05-23T03:14:57;17.80;99.90
19817;DHT22;68323;49.394;8.434;2023-05-23T03:17:24;17.90;99.90
19817;DHT22;68323;49.394;8.434;2023-05-23T03:19:50;17.80;99.90
19817;DHT22;68323;49.394;8.434;2023-05-23T03:22:16;17.80;99.90
19817;DHT22;68323;49.394;8.434;2023-05-23T03:24:41;17.80;99.90
19817;DHT22;68323;49.394;8.434;2023-05-23T03:27:07;17.80;99.90
19817;DHT22;68323;49.394;8.434;2023-05-23T03:29:33;17.80;99.90
19817;DHT22;68323;49.394;8.434;2023-05-23T03:31:58;17.80;99.90
19817;DHT22;68323;49.394;8.434;2023-05-23T03:34:24;17.80;99.90
19817;DHT22;68323;49.394;8.434;2023-05-23T03:36:51;17.80;99.90
19817;DHT22;68323;49.394;8.434;2023-05-23T03:39:17;17.80;99.90
19817;DHT22;68323;49.394;8.434;2023-05-23T03:41:42;17.80;99.90
19817;DHT22;68323;49.394;8.434;2023-05-23T03:44:08;17.80;99.90
19817;DHT22;68323;49.394;8.434;2023-05-23T03:46:34;17.80;99.90
19817;DHT22;68323;49.394;8.434;2023-05-23T03:48:59;17.80;99.90
19817;DHT22;68323;49.394;8.434;2023-05-23T03:51:25;17.90;99.90
19817;DHT22;68323;49.394;8.434;2023-05-23T03:53:50;17.80;99.90
19817;DHT22;68323;49.394;8.434;2023-05-23T03:56:16;17.80;99.90
19817;DHT22;68323;49.394;8.434;2023-05-23T03:58:41;17.90;99.90
19817;DHT22;68323;49.394;8.434;2023-05-23T04:01:07;17.90;99.90
19817;DHT22;68323;49.394;8.434;2023-05-23T04:03:33;17.90;99.90
19817;DHT22;68323;49.394;8.434;2023-05-23T04:05:59;17.90;99.90
19817;DHT22;68323;49.394;8.434;2023-05-23T04:08:26;17.90;99.90
19817;DHT22;68323;49.394;8.434;2023-05-23T04:10:51;17.90;99.90
19817;DHT22;68323;49.394;8.434;2023-05-23T04:13:17;18.00;99.90
19817;DHT22;68323;49.394;8.434;2023-05-23T04:15:42;18.00;99.90
19817;DHT22;68323;49.394;8.434;2023-05-23T04:18:09;18.00;99.90
19817;DHT22;68323;49.394;8.434;2023-05-23T04:20:35;18.00;99.90
19817;DHT22;68323;49.394;8.434;2023-05-23T04:23:00;18.00;99.90
19817;DHT22;68323;49.394;8.434;2023-05-23T04:25:26;18.10;99.90
19817;DHT22;68323;49.394;8.434;2023-05-23T04:27:51;18.20;99.90
19817;DHT22;68323;49.394;8.434;2023-05-23T04:30:18;18.20;99.90
19817;DHT22;68323;49.394;8.434;2023-05-23T04:32:45;18.20;99.90
19817;DHT22;68323;49.394;8.434;2023-05-23T04:35:11;18.20;99.90
19817;DHT22;68323;49.394;8.434;2023-05-23T04:37:37;18.20;99.90
19817;DHT22;68323;49.394;8.434;2023-05-23T04:40:04;18.20;99.90
19817;DHT22;68323;49.394;8.434;2023-05-23T04:42:30;18.20;99.90
19817;DHT22;68323;49.394;8.434;2023-05-23T04:44:55;18.30;99.90
19817;DHT22;68323;49.394;8.434;2023-05-23T04:47:22;18.30;99.90
19817;DHT22;68323;49.394;8.434;2023-05-23T04:49:49;18.30;99.90
19817;DHT22;68323;49.394;8.434;2023-05-23T04:52:15;18.30;99.90
19817;DHT22;68323;49.394;8.434;2023-05-23T04:54:44;18.30;99.90
19817;DHT22;68323;49.394;8.434;2023-05-23T04:57:11;18.30;99.90
19817;DHT22;68323;49.394;8.434;2023-05-23T04:59:37;18.30;99.90
19817;DHT22;68323;49.394;8.434;2023-05-23T05:02:02;18.40;99.90
19817;DHT22;68323;49.394;8.434;2023-05-23T05:04:30;18.40;99.90
19817;DHT22;68323;49.394;8.434;2023-05-23T05:06:55;18.60;99.90
19817;DHT22;68323;49.394;8.434;2023-05-23T05:09:21;18.60;99.90
19817;DHT22;68323;49.394;8.434;2023-05-23T05:11:47;18.70;99.90
19817;DHT22;68323;49.394;8.434;2023-05-23T05:14:12;18.70;99.90
19817;DHT22;68323;49.394;8.434;2023-05-23T05:16:38;18.70;99.90
19817;DHT22;68323;49.394;8.434;2023-05-23T05:19:04;18.70;99.90
19817;DHT22;68323;49.394;8.434;2023-05-23T05:21:30;18.70;99.90
19817;DHT22;68323;49.394;8.434;2023-05-23T05:23:55;18.80;99.90
19817;DHT22;68323;49.394;8.434;2023-05-23T05:26:22;19.00;99.90
19817;DHT22;68323;49.394;8.434;2023-05-23T05:28:47;19.30;99.90
19817;DHT22;68323;49.394;8.434;2023-05-23T05:31:13;19.50;99.90
19817;DHT22;68323;49.394;8.434;2023-05-23T05:33:40;19.60;99.90
19817;DHT22;68323;49.394;8.434;2023-05-23T05:36:06;19.90;99.90
19817;DHT22;68323;49.394;8.434;2023-05-23T05:38:31;20.10;99.90
19817;DHT22;68323;49.394;8.434;2023-05-23T05:40:57;20.20;99.90
19817;DHT22;68323;49.394;8.434;2023-05-23T05:43:24;20.10;99.90
19817;DHT22;68323;49.394;8.434;2023-05-23T05:45:49;20.00;99.90
19817;DHT22;68323;49.394;8.434;2023-05-23T05:48:15;19.90;99.90
19817;DHT22;68323;49.394;8.434;2023-05-23T05:50:41;19.70;99.90
19817;DHT22;68323;49.394;8.434;2023-05-23T05:53:09;19.60;99.90
19817;DHT22;68323;49.394;8.434;2023-05-23T05:55:35;19.50;99.90
19817;DHT22;68323;49.394;8.434;2023-05-23T05:58:01;19.40;99.90
19817;DHT22;68323;49.394;8.434;2023-05-23T06:00:26;19.20;99.90
19817;DHT22;68323;49.394;8.434;2023-05-23T06:02:52;19.20;99.90
19817;DHT22;68323;49.394;8.434;2023-05-23T06:05:21;19.10;99.90
19817;DHT22;68323;49.394;8.434;2023-05-23T06:07:48;19.10;99.90
19817;DHT22;68323;49.394;8.434;2023-05-23T06:10:14;19.00;99.90
19817;DHT22;68323;49.394;8.434;2023-05-23T06:12:40;19.10;99.90
19817;DHT22;68323;49.394;8.434;2023-05-23T06:15:07;19.10;99.90
19817;DHT22;68323;49.394;8.434;2023-05-23T06:17:33;19.30;99.90
19817;DHT22;68323;49.394;8.434;2023-05-23T06:19:59;19.50;99.90
19817;DHT22;68323;49.394;8.434;2023-05-23T06:22:24;19.60;99.90
19817;DHT22;68323;49.394;8.434;2023-05-23T06:24:50;19.80;99.90
19817;DHT22;68323;49.394;8.434;2023-05-23T06:27:16;19.70;99.90
19817;DHT22;68323;49.394;8.434;2023-05-23T06:29:41;19.80;99.90
19817;DHT22;68323;49.394;8.434;2023-05-23T06:32:07;19.80;99.90
19817;DHT22;68323;49.394;8.434;2023-05-23T06:34:32;19.70;99.90
19817;DHT22;68323;49.394;8.434;2023-05-23T06:36:58;19.70;99.90
19817;DHT22;68323;49.394;8.434;2023-05-23T06:39:23;19.60;99.90
19817;DHT22;68323;49.394;8.434;2023-05-23T06:41:49;19.50;99.90
19817;DHT22;68323;49.394;8.434;2023-05-23T06:44:14;19.40;99.90
19817;DHT22;68323;49.394;8.434;2023-05-23T06:46:46;19.30;99.90
19817;DHT22;68323;49.394;8.434;2023-05-23T06:49:12;19.30;99.90
19817;DHT22;68323;49.394;8.434;2023-05-23T06:51:38;19.30;99.90
19817;DHT22;68323;49.394;8.434;2023-05-23T06:54:04;19.40;99.90
19817;DHT22;68323;49.394;8.434;2023-05-23T06:56:29;19.40;99.90
19817;DHT22;68323;49.394;8.434;2023-05-23T06:58:55;19.50;99.90
19817;DHT22;68323;49.394;8.434;2023-05-23T07:01:20;19.60;99.90
19817;DHT22;68323;49.394;8.434;2023-05-23T07:03:46;19.60;99.90
19817;DHT22;68323;49.394;8.434;2023-05-23T07:06:12;19.70;99.90
19817;DHT22;68323;49.394;8.434;2023-05-23T07:08:38;19.60;99.90
19817;DHT22;68323;49.394;8.434;2023-05-23T07:11:04;19.60;99.90
19817;DHT22;68323;49.394;8.434;2023-05-23T07:13:30;19.50;99.90
19817;DHT22;68323;49.394;8.434;2023-05-23T07:15:56;19.40;99.90
19817;DHT22;68323;49.394;8.434;2023-05-23T07:18:22;19.40;99.90
19817;DHT22;68323;49.394;8.434;2023-05-23T07:20:48;19.20;99.90
19817;DHT22;68323;49.394;8.434;2023-05-23T07:23:14;19.30;99.90
19817;DHT22;68323;49.394;8.434;2023-05-23T07:25:40;19.30;99.90
19817;DHT22;68323;49.394;8.434;2023-05-23T07:28:07;19.30;99.90
19817;DHT22;68323;49.394;8.434;2023-05-23T07:30:32;19.30;99.90
19817;DHT22;68323;49.394;8.434;2023-05-23T07:32:58;19.40;99.90
19817;DHT22;68323;49.394;8.434;2023-05-23T07:35:23;19.50;99.90
19817;DHT22;68323;49.394;8.434;2023-05-23T07:37:54;19.60;99.90
19817;DHT22;68323;49.394;8.434;2023-05-23T07:40:20;19.50;99.90
19817;DHT22;68323;49.394;8.434;2023-05-23T07:42:47;19.50;99.90
19817;DHT22;68323;49.394;8.434;2023-05-23T07:45:13;19.50;99.90
19817;DHT22;68323;49.394;8.434;2023-05-23T07:47:39;19.50;99.90
19817;DHT22;68323;49.394;8.434;2023-05-23T07:50:06;19.50;99.90
19817;DHT22;68323;49.394;8.434;2023-05-23T07:52:32;19.50;99.90
19817;DHT22;68323;49.394;8.434;2023-05-23T07:54:58;19.60;99.90
19817;DHT22;68323;49.394;8.434;2023-05-23T07:57:24;19.60;99.90
19817;DHT22;68323;49.394;8.434;2023-05-23T07:59:52;19.80;99.90
19817;DHT22;68323;49.394;8.434;2023-05-23T08:02:18;19.90;99.90
19817;DHT22;68323;49.394;8.434;2023-05-23T08:04:44;20.20;99.90
19817;DHT22;68323;49.394;8.434;2023-05-23T08:07:10;20.30;99.90
19817;DHT22;68323;49.394;8.434;2023-05-23T08:09:36;20.50;99.90
19817;DHT22;68323;49.394;8.434;2023-05-23T08:12:02;20.60;99.90
19817;DHT22;68323;49.394;8.434;2023-05-23T08:14:28;20.70;99.90
19817;DHT22;68323;49.394;8.434;2023-05-23T08:16:53;20.80;99.80
19817;DHT22;68323;49.394;8.434;2023-05-23T08:19:19;20.80;99.40
19817;DHT22;68323;49.394;8.434;2023-05-23T08:21:45;21.00;99.90
19817;DHT22;68323;49.394;8.434;2023-05-23T08:24:11;21.10;99.90
19817;DHT22;68323;49.394;8.434;2023-05-23T08:26:37;21.20;99.40
19817;DHT22;68323;49.394;8.434;2023-05-23T08:29:03;21.10;97.40
19817;DHT22;68323;49.394;8.434;2023-05-23T08:31:30;21.10;97.00
19817;DHT22;68323;49.394;8.434;2023-05-23T08:33:55;21.10;96.00
19817;DHT22;68323;49.394;8.434;2023-05-23T08:36:21;21.00;96.10
19817;DHT22;68323;49.394;8.434;2023-05-23T08:38:48;21.00;97.20
19817;DHT22;68323;49.394;8.434;2023-05-23T08:41:21;21.00;98.00
19817;DHT22;68323;49.394;8.434;2023-05-23T08:43:47;21.00;97.10
19817;DHT22;68323;49.394;8.434;2023-05-23T08:46:14;20.90;97.40
19817;DHT22;68323;49.394;8.434;2023-05-23T08:48:41;20.80;97.10
19817;DHT22;68323;49.394;8.434;2023-05-23T08:51:08;20.70;97.20
19817;DHT22;68323;49.394;8.434;2023-05-23T08:53:37;20.70;98.00
19817;DHT22;68323;49.394;8.434;2023-05-23T08:56:03;20.70;98.60
19817;DHT22;68323;49.394;8.434;2023-05-23T08:58:31;20.70;98.70
19817;DHT22;68323;49.394;8.434;2023-05-23T09:00:59;20.80;98.30
19817;DHT22;68323;49.394;8.434;2023-05-23T09:03:26;21.30;97.70
19817;DHT22;68323;49.394;8.434;2023-05-23T09:05:53;22.50;95.40
19817;DHT22;68323;49.394;8.434;2023-05-23T09:08:19;23.90;91.80
19817;DHT22;68323;49.394;8.434;2023-05-23T09:10:46;25.30;85.80
19817;DHT22;68323;49.394;8.434;2023-05-23T09:13:14;26.50;75.10
19817;DHT22;68323;49.394;8.434;2023-05-23T09:15:55;27.20;69.80
19817;DHT22;68323;49.394;8.434;2023-05-23T09:18:24;27.90;67.20
19817;DHT22;68323;49.394;8.434;2023-05-23T09:20:50;28.60;64.10
19817;DHT22;68323;49.394;8.434;2023-05-23T09:23:15;29.40;61.00
19817;DHT22;68323;49.394;8.434;2023-05-23T09:25:47;30.20;58.30
19817;DHT22;68323;49.394;8.434;2023-05-23T09:28:13;30.30;56.60
19817;DHT22;68323;49.394;8.434;2023-05-23T09:30:38;29.90;56.10
19817;DHT22;68323;49.394;8.434;2023-05-23T09:33:04;29.20;57.20
19817;DHT22;68323;49.394;8.434;2023-05-23T09:35:30;28.40;58.10
19817;DHT22;68323;49.394;8.434;2023-05-23T09:37:56;27.70;61.20
19817;DHT22;68323;49.394;8.434;2023-05-23T09:40:30;26.90;61.20
19817;DHT22;68323;49.394;8.434;2023-05-23T09:43:02;26.00;62.70
19817;DHT22;68323;49.394;8.434;2023-05-23T09:45:32;25.10;65.40
19817;DHT22;68323;49.394;8.434;2023-05-23T09:47:57;24.20;68.90
19817;DHT22;68323;49.394;8.434;2023-05-23T09:50:25;23.60;72.10
19817;DHT22;68323;49.394;8.434;2023-05-23T09:52:55;23.20;73.70
19817;DHT22;68323;49.394;8.434;2023-05-23T09:55:21;22.90;76.30
19817;DHT22;68323;49.394;8.434;2023-05-23T09:57:51;22.80;77.70
19817;DHT22;68323;49.394;8.434;2023-05-23T10:00:17;22.80;78.00
19817;DHT22;68323;49.394;8.434;2023-05-23T10:05:47;23.40;76.40
19817;DHT22;68323;49.394;8.434;2023-05-23T10:08:54;24.60;73.70
19817;DHT22;68323;49.394;8.434;2023-05-23T10:14:09;25.90;68.20
19817;DHT22;68323;49.394;8.434;2023-05-23T10:16:58;25.80;67.40
19817;DHT22;68323;49.394;8.434;2023-05-23T10:19:35;25.70;67.20
19817;DHT22;68323;49.394;8.434;2023-05-23T10:22:05;25.30;67.90
19817;DHT22;68323;49.394;8.434;2023-05-23T10:24:31;24.80;70.00
19817;DHT22;68323;49.394;8.434;2023-05-23T10:26:57;24.30;71.90
19817;DHT22;68323;49.394;8.434;2023-05-23T10:29:24;23.90;73.70
19817;DHT22;68323;49.394;8.434;2023-05-23T10:31:51;23.50;75.20
19817;DHT22;68323;49.394;8.434;2023-05-23T10:34:36;22.90;78.10
19817;DHT22;68323;49.394;8.434;2023-05-23T10:37:06;22.40;78.60
19817;DHT22;68323;49.394;8.434;2023-05-23T10:42:41;21.50;82.80
19817;DHT22;68323;49.394;8.434;2023-05-23T10:45:16;21.20;85.10
19817;DHT22;68323;49.394;8.434;2023-05-23T10:47:41;21.00;87.80
19817;DHT22;68323;49.394;8.434;2023-05-23T10:50:11;20.90;89.00
19817;DHT22;68323;49.394;8.434;2023-05-23T10:52:41;21.00;88.60
19817;DHT22;68323;49.394;8.434;2023-05-23T10:55:14;21.10;89.70
19817;DHT22;68323;49.394;8.434;2023-05-23T10:57:42;21.20;90.10
19817;DHT22;68323;49.394;8.434;2023-05-23T11:00:15;21.30;90.20
19817;DHT22;68323;49.394;8.434;2023-05-23T11:02:53;21.60;90.40
19817;DHT22;68323;49.394;8.434;2023-05-23T11:05:23;21.90;89.50
19817;DHT22;68323;49.394;8.434;2023-05-23T11:08:12;22.20;89.50
19817;DHT22;68323;49.394;8.434;2023-05-23T11:10:51;22.60;83.90
19817;DHT22;68323;49.394;8.434;2023-05-23T11:13:19;22.90;84.80
19817;DHT22;68323;49.394;8.434;2023-05-23T11:15:45;23.10;81.80
19817;DHT22;68323;49.394;8.434;2023-05-23T11:18:19;23.40;81.30
19817;DHT22;68323;49.394;8.434;2023-05-23T11:20:45;23.60;81.50
19817;DHT22;68323;49.394;8.434;2023-05-23T11:23:11;23.60;80.70
19817;DHT22;68323;49.394;8.434;2023-05-23T11:25:51;23.50;80.20
19817;DHT22;68323;49.394;8.434;2023-05-23T11:28:18;23.30;79.30
19817;DHT22;68323;49.394;8.434;2023-05-23T11:30:47;23.10;79.00
19817;DHT22;68323;49.394;8.434;2023-05-23T11:33:13;22.70;80.40
19817;DHT22;68323;49.394;8.434;2023-05-23T11:35:45;22.60;81.30
19817;DHT22;68323;49.394;8.434;2023-05-23T11:38:13;22.60;81.50
19817;DHT22;68323;49.394;8.434;2023-05-23T11:40:41;22.60;82.50
19817;DHT22;68323;49.394;8.434;2023-05-23T11:43:16;22.50;82.80
19817;DHT22;68323;49.394;8.434;2023-05-23T11:45:42;22.60;84.40
19817;DHT22;68323;49.394;8.434;2023-05-23T11:48:13;22.70;82.90
19817;DHT22;68323;49.394;8.434;2023-05-23T11:50:48;22.90;83.00
19817;DHT22;68323;49.394;8.434;2023-05-23T11:53:15;23.10;81.10
19817;DHT22;68323;49.394;8.434;2023-05-23T11:55:54;23.30;80.50
19817;DHT22;68323;49.394;8.434;2023-05-23T11:58:25;23.60;79.10
19817;DHT22;68323;49.394;8.434;2023-05-23T12:00:51;23.90;78.80
19817;DHT22;68323;49.394;8.434;2023-05-23T12:03:22;24.10;75.90
19817;DHT22;68323;49.394;8.434;2023-05-23T12:05:48;24.20;75.90
19817;DHT22;68323;49.394;8.434;2023-05-23T12:08:13;24.40;76.10
19817;DHT22;68323;49.394;8.434;2023-05-23T12:10:57;24.40;74.30
19817;DHT22;68323;49.394;8.434;2023-05-23T12:13:24;24.20;74.90
19817;DHT22;68323;49.394;8.434;2023-05-23T12:16:09;23.70;76.80
19817;DHT22;68323;49.394;8.434;2023-05-23T12:18:37;23.30;78.10
19817;DHT22;68323;49.394;8.434;2023-05-23T12:21:04;23.00;79.00
19817;DHT22;68323;49.394;8.434;2023-05-23T12:23:33;22.70;80.30
19817;DHT22;68323;49.394;8.434;2023-05-23T12:26:04;22.50;82.50
19817;DHT22;68323;49.394;8.434;2023-05-23T12:28:36;22.50;81.90
19817;DHT22;68323;49.394;8.434;2023-05-23T12:33:40;22.50;82.00
19817;DHT22;68323;49.394;8.434;2023-05-23T12:36:08;22.60;82.30
19817;DHT22;68323;49.394;8.434;2023-05-23T12:38:33;22.70;82.20
19817;DHT22;68323;49.394;8.434;2023-05-23T12:41:15;22.90;83.20
19817;DHT22;68323;49.394;8.434;2023-05-23T12:43:52;23.20;79.90
19817;DHT22;68323;49.394;8.434;2023-05-23T12:46:19;23.40;79.50
19817;DHT22;68323;49.394;8.434;2023-05-23T12:48:44;23.50;78.10
19817;DHT22;68323;49.394;8.434;2023-05-23T12:51:12;23.60;78.60
19817;DHT22;68323;49.394;8.434;2023-05-23T12:53:37;23.70;78.40
19817;DHT22;68323;49.394;8.434;2023-05-23T12:56:03;23.80;78.70
19817;DHT22;68323;49.394;8.434;2023-05-23T12:58:29;23.90;76.20
19817;DHT22;68323;49.394;8.434;2023-05-23T13:00:55;24.00;78.10
19817;DHT22;68323;49.394;8.434;2023-05-23T13:03:21;24.10;77.80
19817;DHT22;68323;49.394;8.434;2023-05-23T13:05:47;24.00;77.50
19817;DHT22;68323;49.394;8.434;2023-05-23T13:08:12;24.10;78.20
19817;DHT22;68323;49.394;8.434;2023-05-23T13:10:38;24.10;76.80
19817;DHT22;68323;49.394;8.434;2023-05-23T13:13:04;23.90;76.50
19817;DHT22;68323;49.394;8.434;2023-05-23T13:15:30;24.00;78.10
19817;DHT22;68323;49.394;8.434;2023-05-23T13:17:55;23.90;78.10
19817;DHT22;68323;49.394;8.434;2023-05-23T13:20:21;23.90;76.10
19817;DHT22;68323;49.394;8.434;2023-05-23T13:22:47;23.80;76.30
19817;DHT22;68323;49.394;8.434;2023-05-23T13:25:12;23.60;76.60
19817;DHT22;68323;49.394;8.434;2023-05-23T13:27:38;23.60;77.80
19817;DHT22;68323;49.394;8.434;2023-05-23T13:30:04;23.60;78.00
19817;DHT22;68323;49.394;8.434;2023-05-23T13:32:30;23.50;73.90
19817;DHT22;68323;49.394;8.434;2023-05-23T13:34:56;23.40;76.50
19817;DHT22;68323;49.394;8.434;2023-05-23T13:37:21;23.40;78.30
19817;DHT22;68323;49.394;8.434;2023-05-23T13:39:47;23.40;76.20
19817;DHT22;68323;49.394;8.434;2023-05-23T13:42:12;23.30;77.10
19817;DHT22;68323;49.394;8.434;2023-05-23T13:44:38;23.40;78.10
19817;DHT22;68323;49.394;8.434;2023-05-23T13:47:11;23.60;76.80
19817;DHT22;68323;49.394;8.434;2023-05-23T13:49:37;23.70;75.80
19817;DHT22;68323;49.394;8.434;2023-05-23T13:52:03;23.60;76.70
19817;DHT22;68323;49.394;8.434;2023-05-23T13:54:29;23.40;77.90
19817;DHT22;68323;49.394;8.434;2023-05-23T13:56:54;23.50;78.50
19817;DHT22;68323;49.394;8.434;2023-05-23T13:59:20;23.60;77.30
19817;DHT22;68323;49.394;8.434;2023-05-23T14:01:48;23.70;76.10
19817;DHT22;68323;49.394;8.434;2023-05-23T14:04:14;23.70;76.10
19817;DHT22;68323;49.394;8.434;2023-05-23T14:06:40;23.70;74.50
19817;DHT22;68323;49.394;8.434;2023-05-23T14:09:05;23.80;75.10
19817;DHT22;68323;49.394;8.434;2023-05-23T14:11:31;23.80;74.60
19817;DHT22;68323;49.394;8.434;2023-05-23T14:13:57;23.70;75.60
19817;DHT22;68323;49.394;8.434;2023-05-23T14:16:23;23.70;75.00
19817;DHT22;68323;49.394;8.434;2023-05-23T14:18:49;23.80;74.10
19817;DHT22;68323;49.394;8.434;2023-05-23T14:21:14;23.70;74.30
19817;DHT22;68323;49.394;8.434;2023-05-23T14:23:40;23.60;74.20
19817;DHT22;68323;49.394;8.434;2023-05-23T14:26:05;23.50;74.30
19817;DHT22;68323;49.394;8.434;2023-05-23T14:28:31;23.40;74.80
19817;DHT22;68323;49.394;8.434;2023-05-23T14:30:57;23.40;73.30
19817;DHT22;68323;49.394;8.434;2023-05-23T14:33:26;23.40;73.00
19817;DHT22;68323;49.394;8.434;2023-05-23T14:35:51;23.40;72.90
19817;DHT22;68323;49.394;8.434;2023-05-23T14:38:17;23.30;73.50
19817;DHT22;68323;49.394;8.434;2023-05-23T14:40:43;23.30;74.00
19817;DHT22;68323;49.394;8.434;2023-05-23T14:43:09;23.30;75.00
19817;DHT22;68323;49.394;8.434;2023-05-23T14:45:34;23.20;73.90
19817;DHT22;68323;49.394;8.434;2023-05-23T14:48:00;23.20;74.80
19817;DHT22;68323;49.394;8.434;2023-05-23T14:50:26;23.20;73.80
19817;DHT22;68323;49.394;8.434;2023-05-23T14:52:53;23.30;74.10
19817;DHT22;68323;49.394;8.434;2023-05-23T14:55:18;23.30;74.10
19817;DHT22;68323;49.394;8.434;2023-05-23T14:57:44;23.20;76.00
19817;DHT22;68323;49.394;8.434;2023-05-23T15:00:10;23.30;74.30
19817;DHT22;68323;49.394;8.434;2023-05-23T15:02:36;23.30;73.50
19817;DHT22;68323;49.394;8.434;2023-05-23T15:05:03;23.20;75.20
19817;DHT22;68323;49.394;8.434;2023-05-23T15:07:29;23.20;76.20
19817;DHT22;68323;49.394;8.434;2023-05-23T15:09:54;23.10;76.10
19817;DHT22;68323;49.394;8.434;2023-05-23T15:12:20;23.00;76.90
19817;DHT22;68323;49.394;8.434;2023-05-23T15:14:46;22.90;76.60
19817;DHT22;68323;49.394;8.434;2023-05-23T15:17:12;22.90;76.90
19817;DHT22;68323;49.394;8.434;2023-05-23T15:19:44;22.80;76.00
19817;DHT22;68323;49.394;8.434;2023-05-23T15:22:09;22.70;76.50
19817;DHT22;68323;49.394;8.434;2023-05-23T15:24:35;22.60;77.20
19817;DHT22;68323;49.394;8.434;2023-05-23T15:27:00;22.50;77.60
19817;DHT22;68323;49.394;8.434;2023-05-23T15:29:26;22.50;77.80
19817;DHT22;68323;49.394;8.434;2023-05-23T15:31:52;22.50;77.40
19817;DHT22;68323;49.394;8.434;2023-05-23T15:34:18;22.50;77.10
19817;DHT22;68323;49.394;8.434;2023-05-23T15:36:44;22.40;77.20
19817;DHT22;68323;49.394;8.434;2023-05-23T15:39:10;22.30;77.60
19817;DHT22;68323;49.394;8.434;2023-05-23T15:41:37;22.30;77.90
19817;DHT22;68323;49.394;8.434;2023-05-23T15:44:02;22.30;77.30
19817;DHT22;68323;49.394;8.434;2023-05-23T15:46:28;22.30;78.20
19817;DHT22;68323;49.394;8.434;2023-05-23T15:48:53;22.30;79.20